createdAt,value
2023-04-09T00:01:14.051Z,98844.52
2023-04-09T00:03:42.940Z,98839.34
2023-04-09T00:06:13.046Z,98839.76
2023-04-09T00:08:42.035Z,98842.30
2023-04-09T00:11:11.480Z,98840.70
2023-04-09T00:13:40.897Z,98842.14
2023-04-09T00:16:10.631Z,98842.07
2023-04-09T00:18:39.865Z,98840.58
2023-04-09T00:21:09.435Z,98834.81
2023-04-09T00:23:38.662Z,98837.66
2023-04-09T00:26:07.659Z,98831.77
2023-04-09T00:28:37.046Z,98830.60
2023-04-09T00:31:06.372Z,98832.98
2023-04-09T00:33:35.503Z,98835.17
2023-04-09T00:36:04.586Z,98832.23
2023-04-09T00:38:33.742Z,98831.11
2023-04-09T00:41:03.746Z,98830.73
2023-04-09T00:43:33.203Z,98838.52
2023-04-09T00:46:02.560Z,98842.86
2023-04-09T00:48:31.576Z,98839.84
2023-04-09T00:51:00.816Z,98839.54
2023-04-09T00:53:29.728Z,98838.30
2023-04-09T00:55:59.009Z,98834.39
2023-04-09T00:58:27.998Z,98838.54
2023-04-09T01:00:56.928Z,98837.13
2023-04-09T01:03:26.176Z,98836.37
2023-04-09T01:05:59.022Z,98837.96
2023-04-09T01:08:37.678Z,98839.62
2023-04-09T01:11:29.998Z,98839.70
2023-04-09T01:14:46.170Z,98838.77
2023-04-09T01:17:21.564Z,98841.98
2023-04-09T01:20:06.044Z,98840.30
2023-04-09T01:22:56.395Z,98844.55
2023-04-09T01:26:00.166Z,98850.05
2023-04-09T01:28:40.638Z,98848.86
2023-04-09T01:31:18.908Z,98852.13
2023-04-09T01:33:48.360Z,98853.15
2023-04-09T01:36:17.940Z,98854.31
2023-04-09T01:38:49.311Z,98851.42
2023-04-09T01:41:24.197Z,98852.64
2023-04-09T01:43:53.606Z,98855.11
2023-04-09T01:46:23.541Z,98854.84
2023-04-09T01:48:52.875Z,98855.89
2023-04-09T01:51:22.205Z,98861.02
2023-04-09T01:53:51.528Z,98857.14
2023-04-09T01:56:21.674Z,98854.36
2023-04-09T01:58:50.641Z,98856.16
2023-04-09T02:01:19.627Z,98858.56
2023-04-09T02:03:55.170Z,98855.88
2023-04-09T02:06:42.012Z,98853.39
2023-04-09T02:09:13.244Z,98842.50
2023-04-09T02:11:43.653Z,98842.92
2023-04-09T02:14:13.650Z,98841.66
2023-04-09T02:16:43.310Z,98844.40
2023-04-09T02:19:12.228Z,98845.20
2023-04-09T02:21:41.441Z,98845.59
2023-04-09T02:24:10.852Z,98846.35
2023-04-09T02:26:39.903Z,98851.52
2023-04-09T02:29:08.474Z,98848.64
2023-04-09T02:31:37.407Z,98846.19
2023-04-09T02:34:06.357Z,98847.44
2023-04-09T02:36:35.157Z,98846.73
2023-04-09T02:39:04.482Z,98843.09
2023-04-09T02:41:33.850Z,98846.27
2023-04-09T02:44:03.420Z,98847.55
2023-04-09T02:46:32.849Z,98843.88
2023-04-09T02:49:02.318Z,98843.67
2023-04-09T02:51:31.860Z,98841.27
2023-04-09T02:54:00.870Z,98839.58
2023-04-09T02:56:30.710Z,98840.63
2023-04-09T02:58:59.794Z,98838.86
2023-04-09T03:01:29.471Z,98834.05
2023-04-09T03:03:59.075Z,98833.02
2023-04-09T03:06:28.132Z,98841.74
2023-04-09T03:08:57.483Z,98834.54
2023-04-09T03:11:26.628Z,98839.62
2023-04-09T03:13:55.925Z,98835.83
2023-04-09T03:16:27.900Z,98841.28
2023-04-09T03:18:57.866Z,98842.16
2023-04-09T03:21:27.770Z,98843.21
2023-04-09T03:23:56.986Z,98841.46
2023-04-09T03:26:25.923Z,98844.86
2023-04-09T03:28:55.182Z,98842.51
2023-04-09T03:31:24.648Z,98842.44
2023-04-09T03:33:53.708Z,98846.80
2023-04-09T03:36:23.031Z,98845.96
2023-04-09T03:38:52.056Z,98851.10
2023-04-09T03:41:20.879Z,98856.54
2023-04-09T03:43:49.708Z,98854.95
2023-04-09T03:46:19.363Z,98857.46
2023-04-09T03:48:48.465Z,98858.02
2023-04-09T03:51:18.370Z,98861.77
2023-04-09T03:53:47.223Z,98860.58
2023-04-09T03:56:16.488Z,98855.14
2023-04-09T03:58:45.474Z,98858.23
2023-04-09T04:01:14.244Z,98854.02
2023-04-09T04:03:43.369Z,98855.23
2023-04-09T04:06:12.078Z,98857.05
2023-04-09T04:08:41.856Z,98860.70
2023-04-09T04:11:11.459Z,98857.25
2023-04-09T04:13:40.402Z,98856.98
2023-04-09T04:16:10.403Z,98861.45
2023-04-09T04:18:39.368Z,98862.21
2023-04-09T04:21:14.109Z,98861.02
2023-04-09T04:23:43.049Z,98864.17
2023-04-09T04:26:12.676Z,98864.06
2023-04-09T04:28:41.580Z,98867.27
2023-04-09T04:31:12.289Z,98868.84
2023-04-09T04:33:42.499Z,98872.80
2023-04-09T04:36:14.782Z,98879.33
2023-04-09T04:38:43.701Z,98884.27
2023-04-09T04:41:12.629Z,98883.14
2023-04-09T04:43:41.818Z,98887.86
2023-04-09T04:46:10.981Z,98887.77
2023-04-09T04:48:39.717Z,98889.03
2023-04-09T04:51:08.568Z,98892.16
2023-04-09T04:53:37.593Z,98898.08
2023-04-09T04:56:06.592Z,98897.70
2023-04-09T04:58:35.185Z,98896.40
2023-04-09T05:01:03.954Z,98899.15
2023-04-09T05:03:32.933Z,98897.71
2023-04-09T05:06:01.818Z,98904.73
2023-04-09T05:08:31.005Z,98904.61
2023-04-09T05:11:00.568Z,98909.60
2023-04-09T05:13:29.653Z,98912.20
2023-04-09T05:15:58.698Z,98913.39
2023-04-09T05:18:27.636Z,98915.81
2023-04-09T05:20:57.305Z,98918.41
2023-04-09T05:23:26.157Z,98914.55
2023-04-09T05:25:54.972Z,98919.85
2023-04-09T05:28:24.025Z,98920.59
2023-04-09T05:30:53.883Z,98925.02
2023-04-09T05:33:23.072Z,98925.27
2023-04-09T05:35:52.500Z,98929.28
2023-04-09T05:38:23.026Z,98930.58
2023-04-09T05:40:52.491Z,98935.02
2023-04-09T05:43:21.446Z,98936.38
2023-04-09T05:45:53.062Z,98942.01
2023-04-09T05:48:23.861Z,98942.58
2023-04-09T05:50:55.853Z,98942.74
2023-04-09T05:53:26.235Z,98945.02
2023-04-09T05:55:56.187Z,98945.63
2023-04-09T05:58:25.592Z,98947.05
2023-04-09T06:00:55.426Z,98949.84
2023-04-09T06:03:24.378Z,98950.38
2023-04-09T06:05:53.679Z,98950.48
2023-04-09T06:08:22.725Z,98956.48
2023-04-09T06:10:51.501Z,98960.36
2023-04-09T06:13:20.187Z,98961.98
2023-04-09T06:15:49.225Z,98961.71
2023-04-09T06:18:18.696Z,98960.75
2023-04-09T06:20:47.316Z,98962.86
2023-04-09T06:23:16.318Z,98962.96
2023-04-09T06:25:45.146Z,98958.83
2023-04-09T06:28:14.107Z,98956.94
2023-04-09T06:30:43.118Z,98960.17
2023-04-09T06:33:12.548Z,98960.29
2023-04-09T06:35:42.843Z,98966.64
2023-04-09T06:38:12.194Z,98969.84
2023-04-09T06:40:41.916Z,98970.91
2023-04-09T06:43:12.270Z,98972.05
2023-04-09T06:45:42.016Z,98970.65
2023-04-09T06:48:12.518Z,98971.45
2023-04-09T06:50:43.419Z,98972.20
2023-04-09T06:53:13.407Z,98973.54
2023-04-09T06:55:44.542Z,98972.98
2023-04-09T06:58:18.177Z,98976.80
2023-04-09T07:00:47.380Z,98974.23
2023-04-09T07:03:16.889Z,98973.29
2023-04-09T07:05:46.645Z,98975.77
2023-04-09T07:08:16.589Z,98977.52
2023-04-09T07:10:47.954Z,98976.50
2023-04-09T07:13:17.399Z,98971.34
2023-04-09T07:15:47.598Z,98967.64
2023-04-09T07:18:17.282Z,98966.58
2023-04-09T07:20:46.294Z,98969.96
2023-04-09T07:23:15.305Z,98971.53
2023-04-09T07:25:45.002Z,98980.30
2023-04-09T07:28:14.961Z,98979.48
2023-04-09T07:30:44.392Z,98981.80
2023-04-09T07:33:14.887Z,98984.00
2023-04-09T07:35:44.452Z,98985.44
2023-04-09T07:38:14.474Z,98990.71
2023-04-09T07:40:43.747Z,98990.43
2023-04-09T07:43:12.783Z,98990.33
2023-04-09T07:45:43.423Z,98988.23
2023-04-09T07:48:13.378Z,98988.04
2023-04-09T07:50:43.020Z,98991.83
2023-04-09T07:53:13.201Z,98990.91
2023-04-09T07:55:42.080Z,98989.95
2023-04-09T07:58:11.652Z,98987.92
2023-04-09T08:00:40.610Z,98984.95
2023-04-09T08:03:11.487Z,98983.30
2023-04-09T08:05:41.630Z,98982.37
2023-04-09T08:08:10.725Z,98982.16
2023-04-09T08:10:39.719Z,98981.61
2023-04-09T08:13:10.193Z,98977.98
2023-04-09T08:15:41.911Z,98981.35
2023-04-09T08:18:11.219Z,98978.48
2023-04-09T08:20:45.803Z,98979.20
2023-04-09T08:23:15.441Z,98985.57
2023-04-09T08:25:44.711Z,98988.25
2023-04-09T08:28:14.114Z,98987.34
2023-04-09T08:30:46.206Z,98986.58
2023-04-09T08:33:18.619Z,98986.34
2023-04-09T08:35:48.396Z,98982.55
2023-04-09T08:38:19.534Z,98991.43
2023-04-09T08:40:49.117Z,98991.44
2023-04-09T08:43:25.011Z,98989.68
2023-04-09T08:45:59.020Z,98989.88
2023-04-09T08:48:28.807Z,98995.86
2023-04-09T08:50:58.274Z,99003.91
2023-04-09T08:53:28.412Z,99001.27
2023-04-09T08:55:58.214Z,99007.11
2023-04-09T08:58:28.625Z,98997.70
2023-04-09T09:00:57.867Z,99001.77
2023-04-09T09:03:27.625Z,99005.74
2023-04-09T09:05:56.686Z,99004.85
2023-04-09T09:08:27.445Z,99009.41
2023-04-09T09:10:56.870Z,99003.77
2023-04-09T09:13:28.673Z,99006.10
2023-04-09T09:16:24.602Z,99005.36
2023-04-09T09:18:54.670Z,99001.38
2023-04-09T09:21:25.011Z,99004.18
2023-04-09T09:23:55.871Z,98999.18
2023-04-09T09:26:30.617Z,98994.20
2023-04-09T09:29:07.536Z,98989.27
2023-04-09T09:31:50.091Z,98989.73
2023-04-09T09:34:22.200Z,98997.39
2023-04-09T09:36:51.982Z,98995.04
2023-04-09T09:39:23.481Z,98992.27
2023-04-09T09:42:08.749Z,98993.06
2023-04-09T09:44:39.584Z,98986.46
2023-04-09T09:47:10.134Z,98986.30
2023-04-09T09:49:39.516Z,98982.95
2023-04-09T09:52:11.497Z,98980.52
2023-04-09T09:54:46.958Z,98985.14
2023-04-09T09:57:20.937Z,98986.71
2023-04-09T10:00:17.722Z,98992.92
2023-04-09T10:02:57.692Z,98993.86
2023-04-09T10:05:28.397Z,98989.10
2023-04-09T10:07:58.835Z,98987.45
2023-04-09T10:10:28.436Z,98982.70
2023-04-09T10:12:58.125Z,98973.94
2023-04-09T10:15:30.279Z,98973.67
2023-04-09T10:18:00.340Z,98977.68
2023-04-09T10:21:00.188Z,98986.36
2023-04-09T10:23:38.443Z,98989.67
2023-04-09T10:26:07.954Z,98994.13
2023-04-09T10:28:40.688Z,98988.17
2023-04-09T10:31:09.650Z,98993.29
2023-04-09T10:33:39.556Z,98997.63
2023-04-09T10:36:15.299Z,98990.46
2023-04-09T10:38:47.451Z,98985.07
2023-04-09T10:41:23.203Z,98986.21
2023-04-09T10:43:51.930Z,98990.70
2023-04-09T10:46:37.691Z,98987.95
2023-04-09T10:49:19.998Z,98987.90
2023-04-09T10:51:51.537Z,98984.09
2023-04-09T10:54:37.935Z,98981.21
2023-04-09T10:57:09.728Z,98982.08
2023-04-09T10:59:41.682Z,98976.41
2023-04-09T11:02:26.414Z,98970.77
2023-04-09T11:05:11.730Z,98966.77
2023-04-09T11:07:45.385Z,98960.41
2023-04-09T11:10:14.759Z,98953.22
2023-04-09T11:12:44.166Z,98955.25
2023-04-09T11:15:18.616Z,98957.75
2023-04-09T11:17:49.384Z,98958.43
2023-04-09T11:20:22.328Z,98957.55
2023-04-09T11:22:53.899Z,98958.57
2023-04-09T11:25:28.634Z,98955.59
2023-04-09T11:27:58.581Z,98954.01
2023-04-09T11:30:28.591Z,98953.60
2023-04-09T11:32:58.488Z,98953.65
2023-04-09T11:35:29.120Z,98952.45
2023-04-09T11:38:00.117Z,98953.77
2023-04-09T11:40:30.824Z,98959.89
2023-04-09T11:43:01.959Z,98956.95
2023-04-09T11:45:34.259Z,98951.84
2023-04-09T11:48:06.267Z,98951.14
2023-04-09T11:50:38.932Z,98955.33
2023-04-09T11:53:23.115Z,98953.89
2023-04-09T11:55:54.570Z,98954.23
2023-04-09T11:58:26.629Z,98956.09
2023-04-09T12:01:02.557Z,98964.59
2023-04-09T12:03:33.814Z,98963.50
2023-04-09T12:06:04.924Z,98953.52
2023-04-09T12:08:38.137Z,98954.11
2023-04-09T12:11:13.625Z,98953.11
2023-04-09T12:13:46.870Z,98951.92
2023-04-09T12:16:21.952Z,98949.98
2023-04-09T12:18:56.552Z,98944.98
2023-04-09T12:21:27.923Z,98954.17
2023-04-09T12:24:00.040Z,98949.27
2023-04-09T12:26:31.098Z,98950.85
2023-04-09T12:29:02.204Z,98953.30
2023-04-09T12:31:31.738Z,98950.29
2023-04-09T12:34:01.829Z,98951.11
2023-04-09T12:36:33.497Z,98943.86
2023-04-09T12:39:04.051Z,98944.61
2023-04-09T12:41:35.614Z,98944.04
2023-04-09T12:44:06.949Z,98939.86
2023-04-09T12:46:36.661Z,98946.48
2023-04-09T12:49:06.773Z,98935.41
2023-04-09T12:51:38.385Z,98932.58
2023-04-09T12:54:09.724Z,98941.41
2023-04-09T12:56:41.607Z,98938.67
2023-04-09T12:59:11.516Z,98927.25
2023-04-09T13:01:43.666Z,98927.33
2023-04-09T13:04:16.081Z,98933.95
2023-04-09T13:06:51.561Z,98938.93
2023-04-09T13:09:25.125Z,98931.21
2023-04-09T13:11:57.212Z,98934.84
2023-04-09T13:14:30.141Z,98942.55
2023-04-09T13:17:03.031Z,98950.55
2023-04-09T13:19:33.213Z,98943.00
2023-04-09T13:22:03.347Z,98939.70
2023-04-09T13:24:33.092Z,98934.33
2023-04-09T13:27:04.997Z,98937.33
2023-04-09T13:29:34.810Z,98941.15
2023-04-09T13:32:07.721Z,98946.26
2023-04-09T13:34:39.832Z,98949.26
2023-04-09T13:37:11.284Z,98961.04
2023-04-09T13:39:41.869Z,98970.30
2023-04-09T13:42:14.365Z,98994.52
2023-04-09T13:44:48.351Z,99002.79
2023-04-09T13:47:19.100Z,99005.11
2023-04-09T13:49:48.815Z,98990.80
2023-04-09T13:52:17.871Z,98979.78
2023-04-09T13:54:47.933Z,98977.55
2023-04-09T13:57:19.203Z,98974.17
2023-04-09T13:59:50.320Z,98971.42
2023-04-09T14:02:20.884Z,98964.42
2023-04-09T14:04:52.162Z,98965.67
2023-04-09T14:07:22.631Z,98955.65
2023-04-09T14:09:52.818Z,98948.92
2023-04-09T14:12:22.865Z,98947.00
2023-04-09T14:14:52.732Z,98943.11
2023-04-09T14:17:22.393Z,98945.10
2023-04-09T14:19:51.681Z,98941.55
2023-04-09T14:22:21.022Z,98942.69
2023-04-09T14:24:50.762Z,98942.92
2023-04-09T14:27:20.864Z,98939.44
2023-04-09T14:29:52.244Z,98928.88
2023-04-09T14:32:21.676Z,98926.28
2023-04-09T14:34:52.075Z,98929.34
2023-04-09T14:37:21.263Z,98929.24
2023-04-09T14:39:51.111Z,98929.96
2023-04-09T14:42:20.974Z,98927.63
2023-04-09T14:44:50.541Z,98930.25
2023-04-09T14:47:19.772Z,98933.30
2023-04-09T14:49:49.530Z,98931.33
2023-04-09T14:52:19.308Z,98932.80
2023-04-09T14:54:48.854Z,98937.30
2023-04-09T14:57:18.449Z,98943.86
2023-04-09T14:59:47.736Z,98941.95
2023-04-09T15:02:17.954Z,98946.02
2023-04-09T15:04:47.920Z,98954.35
2023-04-09T15:07:17.547Z,98952.88
2023-04-09T15:09:47.313Z,98955.87
2023-04-09T15:12:17.110Z,98954.84
2023-04-09T15:14:47.355Z,98955.63
2023-04-09T15:17:19.121Z,98961.51
2023-04-09T15:19:49.753Z,98960.64
2023-04-09T15:22:22.663Z,98958.89
2023-04-09T15:24:52.789Z,98957.64
2023-04-09T15:27:22.155Z,98957.34
2023-04-09T15:29:52.232Z,98958.52
2023-04-09T15:32:22.744Z,98961.04
2023-04-09T15:34:53.429Z,98962.73
2023-04-09T15:37:24.306Z,98958.50
2023-04-09T15:39:54.852Z,98963.83
2023-04-09T15:42:23.924Z,98963.19
2023-04-09T15:44:53.677Z,98960.50
2023-04-09T15:47:23.319Z,98962.06
2023-04-09T15:49:53.367Z,98963.45
2023-04-09T15:52:23.459Z,98964.79
2023-04-09T15:54:53.007Z,98967.96
2023-04-09T15:57:22.477Z,98966.15
2023-04-09T15:59:52.212Z,98966.66
2023-04-09T16:02:24.071Z,98969.91
2023-04-09T16:04:55.768Z,98966.20
2023-04-09T16:07:25.925Z,98968.46
2023-04-09T16:09:55.677Z,98969.09
2023-04-09T16:12:26.620Z,98971.40
2023-04-09T16:14:56.489Z,98971.74
2023-04-09T16:17:25.528Z,98973.53
2023-04-09T16:19:56.394Z,98974.92
2023-04-09T16:22:25.747Z,98976.17
2023-04-09T16:24:54.797Z,98974.77
2023-04-09T16:27:24.463Z,98976.63
2023-04-09T16:29:53.339Z,98973.75
2023-04-09T16:32:22.396Z,98972.02
2023-04-09T16:34:51.785Z,98969.55
2023-04-09T16:37:21.551Z,98966.54
2023-04-09T16:39:51.728Z,98962.76
2023-04-09T16:42:22.484Z,98960.85
2023-04-09T16:44:51.701Z,98960.40
2023-04-09T16:47:22.356Z,98964.44
2023-04-09T16:49:52.308Z,98968.96
2023-04-09T16:52:22.502Z,98973.85
2023-04-09T16:54:51.972Z,98981.20
2023-04-09T16:57:21.732Z,98982.23
2023-04-09T16:59:51.224Z,98982.10
2023-04-09T17:02:22.601Z,98983.27
2023-04-09T17:04:52.361Z,98981.20
2023-04-09T17:07:22.287Z,98981.81
2023-04-09T17:09:52.156Z,98988.55
2023-04-09T17:12:22.160Z,98989.05
2023-04-09T17:14:52.489Z,98989.88
2023-04-09T17:17:22.940Z,98998.15
2023-04-09T17:19:54.236Z,98996.41
2023-04-09T17:22:26.629Z,98995.17
2023-04-09T17:24:57.086Z,98997.93
2023-04-09T17:27:28.547Z,98999.73
2023-04-09T17:29:58.785Z,99007.63
2023-04-09T17:32:28.596Z,99006.20
2023-04-09T17:35:00.390Z,99008.17
2023-04-09T17:37:29.999Z,99010.85
2023-04-09T17:39:59.414Z,99010.14
2023-04-09T17:42:29.383Z,99013.06
2023-04-09T17:44:58.384Z,99013.22
2023-04-09T17:47:28.132Z,99017.85
2023-04-09T17:49:57.662Z,99018.96
2023-04-09T17:52:27.408Z,99017.13
2023-04-09T17:54:58.225Z,99026.91
2023-04-09T17:57:28.937Z,99029.11
2023-04-09T17:59:59.029Z,99037.59
2023-04-09T18:02:28.897Z,99040.13
2023-04-09T18:05:04.493Z,99041.55
2023-04-09T18:07:35.726Z,99045.53
2023-04-09T18:10:08.420Z,99051.05
2023-04-09T18:12:38.894Z,99055.34
2023-04-09T18:15:08.805Z,99055.61
2023-04-09T18:17:39.374Z,99067.45
2023-04-09T18:20:08.945Z,99066.73
2023-04-09T18:22:38.717Z,99066.89
2023-04-09T18:25:08.684Z,99065.79
2023-04-09T18:27:38.632Z,99065.27
2023-04-09T18:30:11.629Z,99071.71
2023-04-09T18:32:40.758Z,99078.35
2023-04-09T18:35:10.503Z,99082.57
2023-04-09T18:37:39.272Z,99080.21
2023-04-09T18:40:12.656Z,99084.42
2023-04-09T18:42:41.933Z,99089.16
2023-04-09T18:45:12.123Z,99093.13
2023-04-09T18:47:41.203Z,99098.08
2023-04-09T18:50:11.782Z,99104.63
2023-04-09T18:52:41.291Z,99112.90
2023-04-09T18:55:12.407Z,99114.35
2023-04-09T18:57:44.589Z,99119.73
2023-04-09T19:00:13.689Z,99122.52
2023-04-09T19:02:43.712Z,99126.27
2023-04-09T19:05:13.526Z,99130.73
2023-04-09T19:07:43.954Z,99130.86
2023-04-09T19:10:14.212Z,99132.50
2023-04-09T19:12:51.097Z,99134.77
2023-04-09T19:15:26.485Z,99138.70
2023-04-09T19:17:57.248Z,99140.59
2023-04-09T19:20:26.669Z,99144.14
2023-04-09T19:22:57.195Z,99151.04
2023-04-09T19:25:26.499Z,99151.85
2023-04-09T19:27:56.901Z,99151.83
2023-04-09T19:30:27.113Z,99156.73
2023-04-09T19:32:56.634Z,99159.25
2023-04-09T19:35:25.608Z,99163.34
2023-04-09T19:37:54.645Z,99166.55
2023-04-09T19:40:23.424Z,99174.64
2023-04-09T19:42:52.716Z,99175.48
2023-04-09T19:45:22.630Z,99175.20
2023-04-09T19:47:52.482Z,99177.48
2023-04-09T19:50:22.373Z,99176.52
2023-04-09T19:52:51.307Z,99175.64
2023-04-09T19:55:20.781Z,99179.16
2023-04-09T19:57:49.984Z,99175.09
2023-04-09T20:00:19.554Z,99178.42
2023-04-09T20:02:49.882Z,99179.44
2023-04-09T20:05:22.308Z,99181.77
2023-04-09T20:07:55.343Z,99186.10
2023-04-09T20:10:25.103Z,99184.75
2023-04-09T20:12:55.079Z,99183.99
2023-04-09T20:15:25.902Z,99185.39
2023-04-09T20:17:56.187Z,99187.49
2023-04-09T20:20:26.012Z,99188.66
2023-04-09T20:22:56.944Z,99186.94
2023-04-09T20:25:26.968Z,99190.18
2023-04-09T20:27:56.604Z,99191.25
2023-04-09T20:30:28.293Z,99191.27
2023-04-09T20:32:59.328Z,99193.61
2023-04-09T20:35:29.607Z,99196.04
2023-04-09T20:38:00.253Z,99200.84
2023-04-09T20:40:31.859Z,99202.23
2023-04-09T20:43:01.866Z,99202.91
2023-04-09T20:45:31.838Z,99206.11
2023-04-09T20:48:03.543Z,99204.69
2023-04-09T20:50:34.189Z,99204.55
2023-04-09T20:53:04.869Z,99205.04
2023-04-09T20:55:36.665Z,99206.97
2023-04-09T20:58:08.640Z,99209.06
2023-04-09T21:00:38.295Z,99210.02
2023-04-09T21:03:08.050Z,99207.23
2023-04-09T21:05:37.625Z,99212.40
2023-04-09T21:08:07.629Z,99218.12
2023-04-09T21:10:37.420Z,99214.66
2023-04-09T21:13:06.961Z,99217.25
2023-04-09T21:15:38.398Z,99214.86
2023-04-09T21:18:08.810Z,99221.06
2023-04-09T21:20:46.123Z,99228.23
2023-04-09T21:23:17.931Z,99230.85
2023-04-09T21:25:47.176Z,99225.89
2023-04-09T21:28:17.732Z,99226.82
2023-04-09T21:30:47.608Z,99225.66
2023-04-09T21:33:17.059Z,99229.13
2023-04-09T21:35:46.753Z,99229.15
2023-04-09T21:38:17.543Z,99235.98
2023-04-09T21:40:47.920Z,99238.50
2023-04-09T21:43:17.484Z,99241.80
2023-04-09T21:45:47.993Z,99244.16
2023-04-09T21:48:17.786Z,99246.52
2023-04-09T21:50:47.599Z,99252.23
2023-04-09T21:53:17.400Z,99252.64
2023-04-09T21:55:47.803Z,99252.61
2023-04-09T21:58:17.965Z,99254.86
2023-04-09T22:00:47.773Z,99251.75
2023-04-09T22:03:17.122Z,99257.30
2023-04-09T22:05:46.186Z,99252.38
2023-04-09T22:08:15.769Z,99251.48
2023-04-09T22:10:45.233Z,99253.48
2023-04-09T22:13:14.085Z,99256.63
2023-04-09T22:15:43.247Z,99250.73
2023-04-09T22:18:12.211Z,99253.28
2023-04-09T22:20:41.657Z,99255.61
2023-04-09T22:23:12.064Z,99257.48
2023-04-09T22:25:41.684Z,99257.48
2023-04-09T22:28:10.640Z,99254.31
2023-04-09T22:30:39.509Z,99253.27
2023-04-09T22:33:09.748Z,99259.73
2023-04-09T22:35:39.212Z,99261.64
2023-04-09T22:38:08.867Z,99265.04
2023-04-09T22:40:38.237Z,99271.31
2023-04-09T22:43:07.900Z,99275.41
2023-04-09T22:45:38.433Z,99272.00
2023-04-09T22:48:09.867Z,99271.62
2023-04-09T22:50:38.965Z,99274.20
2023-04-09T22:53:08.527Z,99274.20
2023-04-09T22:55:38.717Z,99279.53
2023-04-09T22:58:08.149Z,99276.94
2023-04-09T23:00:37.827Z,99275.19
2023-04-09T23:03:07.443Z,99275.86
2023-04-09T23:05:37.186Z,99276.69
2023-04-09T23:08:07.281Z,99273.30
2023-04-09T23:10:37.336Z,99275.36
2023-04-09T23:13:06.874Z,99275.34
2023-04-09T23:15:36.170Z,99276.33
2023-04-09T23:18:05.602Z,99274.27
2023-04-09T23:20:36.283Z,99275.88
2023-04-09T23:23:05.154Z,99277.76
2023-04-09T23:25:34.911Z,99278.84
2023-04-09T23:28:05.056Z,99280.60
2023-04-09T23:30:34.262Z,99284.80
2023-04-09T23:33:03.833Z,99279.25
2023-04-09T23:35:32.596Z,99277.66
2023-04-09T23:38:01.644Z,99274.84
2023-04-09T23:40:30.683Z,99274.05
2023-04-09T23:42:59.787Z,99277.07
2023-04-09T23:45:29.248Z,99274.23
2023-04-09T23:47:59.385Z,99271.95
2023-04-09T23:50:29.348Z,99273.04
2023-04-09T23:53:01.526Z,99266.52
2023-04-09T23:55:30.720Z,99263.68
2023-04-09T23:58:00.307Z,99265.62
